createdAt,value
2019-05-19T00:01:48.517Z,100506.89
2019-05-19T00:04:20.940Z,100505.70
2019-05-19T00:06:52.327Z,100504.22
2019-05-19T00:09:23.740Z,100501.03
2019-05-19T00:11:55.356Z,100502.27
2019-05-19T00:14:26.880Z,100497.95
2019-05-19T00:16:58.420Z,100497.24
2019-05-19T00:19:30.067Z,100493.44
2019-05-19T00:22:03.671Z,100498.48
2019-05-19T00:24:35.664Z,100495.10
2019-05-19T00:27:07.458Z,100494.40
2019-05-19T00:29:38.974Z,100499.75
2019-05-19T00:32:10.702Z,100507.28
2019-05-19T00:34:42.470Z,100504.61
2019-05-19T00:37:14.094Z,100500.48
2019-05-19T00:39:45.535Z,100499.33
2019-05-19T00:42:16.950Z,100502.98
2019-05-19T00:44:48.330Z,100499.05
2019-05-19T00:47:19.896Z,100500.31
2019-05-19T00:49:51.510Z,100496.30
2019-05-19T00:52:23.984Z,100495.24
2019-05-19T00:54:55.518Z,100491.84
2019-05-19T00:57:28.146Z,100508.61
2019-05-19T01:00:00.543Z,100505.02
2019-05-19T01:02:33.760Z,100504.87
2019-05-19T01:05:07.483Z,100500.94
2019-05-19T01:07:40.262Z,100501.64
2019-05-19T01:10:12.650Z,100502.52
2019-05-19T01:12:44.411Z,100505.92
2019-05-19T01:15:17.708Z,100499.70
2019-05-19T01:17:49.158Z,100494.25
2019-05-19T01:20:20.817Z,100491.80
2019-05-19T01:22:52.275Z,100496.08
2019-05-19T01:25:23.793Z,100497.11
2019-05-19T01:27:56.501Z,100510.69
2019-05-19T01:30:28.004Z,100520.97
2019-05-19T01:32:59.608Z,100530.41
2019-05-19T01:35:31.265Z,100533.73
2019-05-19T01:38:02.759Z,100534.77
2019-05-19T01:40:34.276Z,100531.39
2019-05-19T01:43:06.063Z,100528.98
2019-05-19T01:45:37.793Z,100527.33
2019-05-19T01:48:09.435Z,100531.08
2019-05-19T01:50:41.103Z,100543.62
2019-05-19T01:53:12.582Z,100542.05
2019-05-19T01:55:43.935Z,100550.06
2019-05-19T01:58:15.551Z,100550.20
2019-05-19T02:00:46.891Z,100546.45
2019-05-19T02:03:19.937Z,100546.21
2019-05-19T02:05:51.744Z,100545.54
2019-05-19T02:08:23.386Z,100540.20
2019-05-19T02:10:55.108Z,100541.53
2019-05-19T02:13:26.559Z,100544.36
2019-05-19T02:15:58.266Z,100543.52
2019-05-19T02:18:30.918Z,100547.27
2019-05-19T02:21:02.551Z,100537.71
2019-05-19T02:23:34.273Z,100533.62
2019-05-19T02:26:05.759Z,100533.70
2019-05-19T02:28:37.299Z,100540.25
2019-05-19T02:31:08.948Z,100551.33
2019-05-19T02:33:40.507Z,100553.03
2019-05-19T02:36:11.978Z,100543.60
2019-05-19T02:38:46.711Z,100544.19
2019-05-19T02:41:22.135Z,100545.78
2019-05-19T02:43:55.333Z,100550.74
2019-05-19T02:46:27.707Z,100550.64
2019-05-19T02:49:00.223Z,100551.12
2019-05-19T02:51:34.604Z,100548.33
2019-05-19T02:54:07.094Z,100554.64
2019-05-19T02:56:39.322Z,100554.38
2019-05-19T02:59:11.641Z,100558.84
2019-05-19T03:02:04.621Z,100556.76
2019-05-19T03:04:36.138Z,100554.00
2019-05-19T03:07:07.893Z,100565.76
2019-05-19T03:09:40.620Z,100573.52
2019-05-19T03:12:12.602Z,100576.28
2019-05-19T03:14:44.062Z,100576.19
2019-05-19T03:17:17.199Z,100578.50
2019-05-19T03:19:48.733Z,100575.10
2019-05-19T03:22:20.356Z,100578.50
2019-05-19T03:24:52.359Z,100582.47
2019-05-19T03:27:23.907Z,100578.50
2019-05-19T03:29:57.164Z,100576.06
2019-05-19T03:32:30.120Z,100580.28
2019-05-19T03:35:01.702Z,100585.27
2019-05-19T03:37:33.394Z,100586.46
2019-05-19T03:40:07.497Z,100585.60
2019-05-19T03:42:38.886Z,100584.00
2019-05-19T03:45:10.415Z,100582.72
2019-05-19T03:47:42.085Z,100583.66
2019-05-19T03:50:13.831Z,100589.96
2019-05-19T03:52:46.835Z,100583.55
2019-05-19T03:55:19.123Z,100587.05
2019-05-19T03:57:51.577Z,100580.97
2019-05-19T04:00:23.482Z,100585.95
2019-05-19T04:02:55.094Z,100584.74
2019-05-19T04:05:26.648Z,100583.36
2019-05-19T04:07:58.215Z,100589.58
2019-05-19T04:10:29.688Z,100590.38
2019-05-19T04:13:01.264Z,100593.80
2019-05-19T04:15:32.735Z,100592.18
2019-05-19T04:18:05.755Z,100595.80
2019-05-19T04:20:37.527Z,100602.53
2019-05-19T04:23:09.350Z,100606.41
2019-05-19T04:25:40.921Z,100603.14
2019-05-19T04:28:14.165Z,100599.92
2019-05-19T04:30:45.694Z,100606.87
2019-05-19T04:33:17.248Z,100598.12
2019-05-19T04:35:49.733Z,100610.83
2019-05-19T04:38:21.178Z,100611.54
2019-05-19T04:40:52.731Z,100611.52
2019-05-19T04:43:24.361Z,100612.72
2019-05-19T04:45:55.855Z,100608.29
2019-05-19T04:48:27.488Z,100608.93
2019-05-19T04:51:00.996Z,100617.34
2019-05-19T04:53:33.650Z,100615.72
2019-05-19T04:56:05.286Z,100614.70
2019-05-19T04:58:36.888Z,100610.52
2019-05-19T05:01:08.583Z,100613.29
2019-05-19T05:03:40.181Z,100618.53
2019-05-19T05:06:11.836Z,100621.06
2019-05-19T05:08:46.057Z,100627.95
2019-05-19T05:11:17.588Z,100621.57
2019-05-19T05:13:49.134Z,100620.46
2019-05-19T05:16:20.629Z,100625.55
2019-05-19T05:18:52.179Z,100615.73
2019-05-19T05:21:23.588Z,100615.78
2019-05-19T05:23:54.973Z,100619.59
2019-05-19T05:26:26.485Z,100620.09
2019-05-19T05:28:57.823Z,100624.00
2019-05-19T05:31:29.572Z,100623.80
2019-05-19T05:34:01.100Z,100624.34
2019-05-19T05:36:32.654Z,100631.91
2019-05-19T05:39:07.165Z,100635.08
2019-05-19T05:41:38.738Z,100640.73
2019-05-19T05:44:10.406Z,100636.53
2019-05-19T05:46:41.898Z,100629.38
2019-05-19T05:49:13.565Z,100631.69
2019-05-19T05:51:45.968Z,100637.09
2019-05-19T05:54:17.398Z,100638.70
2019-05-19T05:56:49.156Z,100631.77
2019-05-19T05:59:20.611Z,100630.56
2019-05-19T06:01:52.121Z,100627.56
2019-05-19T06:04:23.514Z,100632.31
2019-05-19T06:06:55.178Z,100634.14
2019-05-19T06:09:26.786Z,100636.61
2019-05-19T06:11:58.445Z,100630.00
2019-05-19T06:14:29.873Z,100629.43
2019-05-19T06:17:01.234Z,100622.18
2019-05-19T06:19:32.662Z,100626.73
2019-05-19T06:22:05.361Z,100626.38
2019-05-19T06:24:37.188Z,100622.98
2019-05-19T06:27:08.754Z,100626.31
2019-05-19T06:29:40.253Z,100626.14
2019-05-19T06:32:16.401Z,100628.23
2019-05-19T06:34:48.013Z,100626.28
2019-05-19T06:37:19.493Z,100627.72
2019-05-19T06:39:51.041Z,100622.63
2019-05-19T06:42:22.614Z,100626.94
2019-05-19T06:44:54.037Z,100625.63
2019-05-19T06:47:25.480Z,100638.42
2019-05-19T06:49:56.877Z,100630.56
2019-05-19T06:52:28.417Z,100628.88
2019-05-19T06:54:59.869Z,100633.20
2019-05-19T06:57:31.792Z,100634.24
2019-05-19T07:00:04.652Z,100635.47
2019-05-19T07:02:37.121Z,100637.89
2019-05-19T07:05:08.588Z,100645.87
2019-05-19T07:07:40.054Z,100640.54
2019-05-19T07:10:11.809Z,100635.48
2019-05-19T07:12:43.211Z,100632.33
2019-05-19T07:15:15.794Z,100634.61
2019-05-19T07:17:47.347Z,100634.62
2019-05-19T07:20:23.491Z,100643.06
2019-05-19T07:22:54.921Z,100636.28
2019-05-19T07:25:28.268Z,100629.89
2019-05-19T07:28:00.142Z,100631.77
2019-05-19T07:30:33.152Z,100635.53
2019-05-19T07:33:04.844Z,100633.66
2019-05-19T07:35:36.755Z,100631.98
2019-05-19T07:38:08.646Z,100630.63
2019-05-19T07:40:43.067Z,100632.47
2019-05-19T07:43:14.753Z,100637.37
2019-05-19T07:45:46.578Z,100638.03
2019-05-19T07:48:18.199Z,100636.71
2019-05-19T07:50:49.892Z,100637.75
2019-05-19T07:53:21.539Z,100635.34
2019-05-19T07:55:53.085Z,100638.91
2019-05-19T07:58:24.662Z,100632.17
2019-05-19T08:00:56.261Z,100641.12
2019-05-19T08:03:27.816Z,100648.17
2019-05-19T08:05:59.331Z,100648.66
2019-05-19T08:08:32.423Z,100642.41
2019-05-19T08:11:04.219Z,100641.36
2019-05-19T08:13:35.879Z,100646.96
2019-05-19T08:16:08.231Z,100646.83
2019-05-19T08:18:42.040Z,100647.33
2019-05-19T08:21:14.534Z,100646.01
2019-05-19T08:23:59.874Z,100647.16
2019-05-19T08:26:21.778Z,100646.80
2019-05-19T08:28:53.574Z,100643.93
2019-05-19T08:31:40.454Z,100645.28
2019-05-19T08:34:23.364Z,100647.80
2019-05-19T08:36:54.783Z,100640.31
2019-05-19T08:39:26.165Z,100640.74
2019-05-19T08:41:57.636Z,100645.16
2019-05-19T08:44:29.090Z,100649.83
2019-05-19T08:47:01.302Z,100652.02
2019-05-19T08:49:32.878Z,100648.99
2019-05-19T08:52:04.591Z,100639.34
2019-05-19T08:54:37.479Z,100633.00
2019-05-19T08:57:09.349Z,100641.25
2019-05-19T08:59:41.094Z,100640.50
2019-05-19T09:02:13.733Z,100647.03
2019-05-19T09:04:45.633Z,100634.39
2019-05-19T09:07:17.107Z,100637.75
2019-05-19T09:09:49.256Z,100633.66
2019-05-19T09:12:20.741Z,100630.84
2019-05-19T09:14:52.623Z,100629.17
2019-05-19T09:17:24.757Z,100631.60
2019-05-19T09:19:58.011Z,100626.13
2019-05-19T09:22:31.040Z,100620.70
2019-05-19T09:25:07.007Z,100628.45
2019-05-19T09:27:38.852Z,100626.15
2019-05-19T09:30:11.377Z,100631.60
2019-05-19T09:32:43.011Z,100629.68
2019-05-19T09:35:14.677Z,100625.53
2019-05-19T09:37:49.031Z,100625.99
2019-05-19T09:40:20.528Z,100628.80
2019-05-19T09:42:52.122Z,100615.25
2019-05-19T09:45:23.602Z,100621.00
2019-05-19T09:47:55.102Z,100614.38
2019-05-19T09:50:26.488Z,100616.60
2019-05-19T09:52:57.982Z,100620.83
2019-05-19T09:55:29.405Z,100612.44
2019-05-19T09:58:00.902Z,100614.53
2019-05-19T10:00:32.517Z,100616.34
2019-05-19T10:03:04.112Z,100621.62
2019-05-19T10:05:35.811Z,100617.04
2019-05-19T10:08:07.248Z,100616.02
2019-05-19T10:11:04.969Z,100615.42
2019-05-19T10:13:37.820Z,100616.28
2019-05-19T10:16:09.642Z,100614.70
2019-05-19T10:18:41.067Z,100607.70
2019-05-19T10:21:12.581Z,100614.72
2019-05-19T10:23:44.325Z,100619.45
2019-05-19T10:26:15.865Z,100616.63
2019-05-19T10:28:47.365Z,100618.92
2019-05-19T10:31:18.836Z,100614.98
2019-05-19T10:33:53.981Z,100618.59
2019-05-19T10:36:25.512Z,100608.95
2019-05-19T10:38:56.955Z,100608.02
2019-05-19T10:41:28.508Z,100608.56
2019-05-19T10:44:00.839Z,100599.31
2019-05-19T10:46:33.638Z,100603.08
2019-05-19T10:49:05.041Z,100589.63
2019-05-19T10:51:36.390Z,100601.02
2019-05-19T10:54:11.837Z,100602.59
2019-05-19T10:56:44.201Z,100596.17
2019-05-19T10:59:15.703Z,100604.14
2019-05-19T11:01:47.220Z,100595.98
2019-05-19T11:04:20.313Z,100594.69
2019-05-19T11:06:51.885Z,100593.17
